createdAt,value
2018-02-08T00:00:45.484Z,59.35
2018-02-08T00:03:13.823Z,59.46
2018-02-08T00:05:42.155Z,59.66
2018-02-08T00:08:10.485Z,59.78
2018-02-08T00:10:38.830Z,59.97
2018-02-08T00:13:07.131Z,59.91
2018-02-08T00:15:36.198Z,60.08
2018-02-08T00:18:04.543Z,60.02
2018-02-08T00:20:32.905Z,60.01
2018-02-08T00:23:01.987Z,59.92
2018-02-08T00:25:31.091Z,60.01
2018-02-08T00:28:00.179Z,60.15
2018-02-08T00:30:28.505Z,60.20
2018-02-08T00:32:56.950Z,60.37
2018-02-08T00:35:26.077Z,60.39
2018-02-08T00:37:54.508Z,60.41
2018-02-08T00:40:22.817Z,60.44
2018-02-08T00:42:51.916Z,60.36
2018-02-08T00:45:21.768Z,60.49
2018-02-08T00:47:50.111Z,60.50
2018-02-08T00:50:18.427Z,60.72
2018-02-08T00:52:47.505Z,60.69
2018-02-08T00:55:16.583Z,60.69
2018-02-08T00:57:44.889Z,60.68
2018-02-08T01:00:13.965Z,60.61
2018-02-08T01:02:42.266Z,60.67
2018-02-08T01:05:11.337Z,60.69
2018-02-08T01:07:40.430Z,60.69
2018-02-08T01:10:08.749Z,60.75
2018-02-08T01:12:37.825Z,60.71
2018-02-08T01:15:06.118Z,60.66
2018-02-08T01:17:34.425Z,60.57
2018-02-08T01:20:03.515Z,60.24
2018-02-08T01:22:31.837Z,60.24
2018-02-08T01:25:00.151Z,60.13
2018-02-08T01:27:28.483Z,60.08
2018-02-08T01:29:56.776Z,60.05
2018-02-08T01:32:25.060Z,60.14
2018-02-08T01:34:53.596Z,60.14
2018-02-08T01:37:22.928Z,60.06
2018-02-08T01:39:51.287Z,60.00
2018-02-08T01:42:20.449Z,59.98
2018-02-08T01:44:48.800Z,60.16
2018-02-08T01:47:17.139Z,60.19
2018-02-08T01:49:46.288Z,60.28
2018-02-08T01:52:15.393Z,60.09
2018-02-08T01:54:43.833Z,60.08
2018-02-08T01:57:12.118Z,60.00
2018-02-08T01:59:40.408Z,60.07
2018-02-08T02:02:08.710Z,60.07
2018-02-08T02:04:37.793Z,59.92
2018-02-08T02:07:06.894Z,59.87
2018-02-08T02:09:36.063Z,59.92
2018-02-08T02:12:04.406Z,60.18
2018-02-08T02:14:32.709Z,60.70
2018-02-08T02:17:01.003Z,60.76
2018-02-08T02:19:29.337Z,60.86
2018-02-08T02:21:57.651Z,60.95
2018-02-08T02:24:25.960Z,61.00
2018-02-08T02:26:54.297Z,60.99
2018-02-08T02:29:22.613Z,60.91
2018-02-08T02:31:50.901Z,60.82
2018-02-08T02:34:19.197Z,60.81
2018-02-08T02:36:47.525Z,60.67
2018-02-08T02:39:15.873Z,60.78
2018-02-08T02:41:44.970Z,60.80
2018-02-08T02:44:13.290Z,60.73
2018-02-08T02:46:41.606Z,60.94
2018-02-08T02:49:09.903Z,60.85
2018-02-08T02:51:38.987Z,60.95
2018-02-08T02:54:07.287Z,60.94
2018-02-08T02:56:35.602Z,60.96
2018-02-08T02:59:03.918Z,60.82
2018-02-08T03:01:32.329Z,60.87
2018-02-08T03:04:00.663Z,61.04
2018-02-08T03:06:28.959Z,61.10
2018-02-08T03:08:57.283Z,61.12
2018-02-08T03:11:25.593Z,61.18
2018-02-08T03:13:53.890Z,61.22
2018-02-08T03:16:22.207Z,61.10
2018-02-08T03:18:50.524Z,61.06
2018-02-08T03:21:19.585Z,61.03
2018-02-08T03:23:48.669Z,61.09
2018-02-08T03:26:17.012Z,61.16
2018-02-08T03:28:46.102Z,61.20
2018-02-08T03:31:15.212Z,61.21
2018-02-08T03:33:43.520Z,61.21
2018-02-08T03:36:11.922Z,61.28
2018-02-08T03:38:40.226Z,61.46
2018-02-08T03:41:08.546Z,61.60
2018-02-08T03:43:37.612Z,61.78
2018-02-08T03:46:05.911Z,61.90
2018-02-08T03:48:34.222Z,61.91
2018-02-08T03:51:02.527Z,61.94
2018-02-08T03:53:30.838Z,62.04
2018-02-08T03:55:59.149Z,62.17
2018-02-08T03:58:28.215Z,62.20
2018-02-08T04:00:57.280Z,62.41
2018-02-08T04:03:25.570Z,62.56
2018-02-08T04:05:53.878Z,62.82
2018-02-08T04:08:22.210Z,62.96
2018-02-08T04:10:50.508Z,63.05
2018-02-08T04:13:18.819Z,63.15
2018-02-08T04:15:47.112Z,63.34
2018-02-08T04:18:15.398Z,63.49
2018-02-08T04:20:43.709Z,63.59
2018-02-08T04:23:12.029Z,63.68
2018-02-08T04:25:41.132Z,63.70
2018-02-08T04:28:09.440Z,63.80
2018-02-08T04:30:37.768Z,63.99
2018-02-08T04:33:06.868Z,64.11
2018-02-08T04:35:36.026Z,64.13
2018-02-08T04:38:05.137Z,64.18
2018-02-08T04:40:51.692Z,64.54
2018-02-08T04:43:37.530Z,64.71
2018-02-08T04:46:24.223Z,64.88
2018-02-08T04:48:53.301Z,65.10
2018-02-08T04:51:21.584Z,65.25
2018-02-08T04:53:49.882Z,65.37
2018-02-08T04:56:18.946Z,65.55
2018-02-08T04:58:47.241Z,65.66
2018-02-08T05:01:15.551Z,65.86
2018-02-08T05:03:44.672Z,66.07
2018-02-08T05:06:12.994Z,66.15
2018-02-08T05:08:41.296Z,66.24
2018-02-08T05:11:09.606Z,66.33
2018-02-08T05:13:37.918Z,66.44
2018-02-08T05:16:07.022Z,66.52
2018-02-08T05:18:35.350Z,66.67
2018-02-08T05:21:03.670Z,66.82
2018-02-08T05:23:31.967Z,66.75
2018-02-08T05:26:00.282Z,66.75
2018-02-08T05:28:28.577Z,67.16
2018-02-08T05:30:57.672Z,68.05
2018-02-08T05:33:25.992Z,68.42
2018-02-08T05:35:55.094Z,68.64
2018-02-08T05:38:23.378Z,68.79
2018-02-08T05:40:51.714Z,68.90
2018-02-08T05:43:19.984Z,69.01
2018-02-08T05:45:48.322Z,68.99
2018-02-08T05:48:16.654Z,68.79
2018-02-08T05:50:45.021Z,68.74
2018-02-08T05:53:13.274Z,68.56
2018-02-08T05:55:41.597Z,68.48
2018-02-08T05:58:09.906Z,68.63
2018-02-08T06:00:39.062Z,68.58
2018-02-08T06:03:07.425Z,68.67
2018-02-08T06:05:35.766Z,68.81
2018-02-08T06:08:04.845Z,68.83
2018-02-08T06:10:33.169Z,68.66
2018-02-08T06:13:01.459Z,68.65
2018-02-08T06:15:29.818Z,68.76
2018-02-08T06:17:58.866Z,69.01
2018-02-08T06:20:27.171Z,69.09
2018-02-08T06:22:55.466Z,69.23
2018-02-08T06:25:24.542Z,69.34
2018-02-08T06:27:52.842Z,69.31
2018-02-08T06:30:21.188Z,69.39
2018-02-08T06:32:49.562Z,69.49
2018-02-08T06:35:17.880Z,69.45
2018-02-08T06:37:46.189Z,69.46
2018-02-08T06:40:15.273Z,69.48
2018-02-08T06:42:43.580Z,69.37
2018-02-08T06:45:12.628Z,69.38
2018-02-08T06:47:40.926Z,69.41
2018-02-08T06:50:09.266Z,69.13
2018-02-08T06:52:37.579Z,68.94
2018-02-08T06:55:05.936Z,68.91
2018-02-08T06:57:35.014Z,68.88
2018-02-08T07:00:03.324Z,69.17
2018-02-08T07:02:31.634Z,69.26
2018-02-08T07:05:00.706Z,69.25
2018-02-08T07:07:29.050Z,69.14
2018-02-08T07:09:57.372Z,69.15
2018-02-08T07:12:25.690Z,69.25
2018-02-08T07:14:54.024Z,69.29
2018-02-08T07:17:22.338Z,69.31
2018-02-08T07:19:50.646Z,69.38
2018-02-08T07:22:19.714Z,69.53
2018-02-08T07:24:48.044Z,69.68
2018-02-08T07:27:16.368Z,69.76
2018-02-08T07:29:44.674Z,69.80
2018-02-08T07:32:13.026Z,69.81
2018-02-08T07:34:41.348Z,69.77
2018-02-08T07:37:10.458Z,69.75
2018-02-08T07:39:39.532Z,69.79
2018-02-08T07:42:07.818Z,69.69
2018-02-08T07:44:36.160Z,69.71
2018-02-08T07:47:04.540Z,69.67
2018-02-08T07:49:33.632Z,69.64
2018-02-08T07:52:01.985Z,69.61
2018-02-08T07:54:31.094Z,69.67
2018-02-08T07:57:00.170Z,69.72
2018-02-08T07:59:28.516Z,69.68
2018-02-08T08:01:56.846Z,69.80
2018-02-08T08:04:25.958Z,69.81
2018-02-08T08:06:55.028Z,69.61
2018-02-08T08:09:23.358Z,69.63
2018-02-08T08:11:51.702Z,69.83
2018-02-08T08:14:21.715Z,70.04
2018-02-08T08:16:50.028Z,70.06
2018-02-08T08:19:19.146Z,70.08
2018-02-08T08:21:47.520Z,70.19
2018-02-08T08:24:15.834Z,70.04
2018-02-08T08:26:44.394Z,69.78
2018-02-08T08:29:13.505Z,69.47
2018-02-08T08:31:41.845Z,69.36
2018-02-08T08:34:10.906Z,69.26
2018-02-08T08:36:39.992Z,69.17
2018-02-08T08:39:08.306Z,69.11
2018-02-08T08:41:36.690Z,68.88
2018-02-08T08:44:05.934Z,68.66
2018-02-08T08:46:34.240Z,68.30
2018-02-08T08:49:02.560Z,68.04
2018-02-08T08:51:30.906Z,67.63
2018-02-08T08:53:59.952Z,67.33
2018-02-08T08:56:28.303Z,66.88
2018-02-08T08:58:56.635Z,66.34
2018-02-08T09:01:25.708Z,65.91
2018-02-08T09:03:54.280Z,65.65
2018-02-08T09:06:22.639Z,65.37
2018-02-08T09:08:50.945Z,65.24
2018-02-08T09:11:20.666Z,64.95
2018-02-08T09:13:49.010Z,64.65
2018-02-08T09:16:17.334Z,64.54
2018-02-08T09:18:46.435Z,64.14
2018-02-08T09:21:15.632Z,64.20
2018-02-08T09:23:43.978Z,64.12
2018-02-08T09:26:12.282Z,63.81
2018-02-08T09:28:40.562Z,63.56
2018-02-08T09:31:08.875Z,63.38
2018-02-08T09:33:37.172Z,63.17
2018-02-08T09:36:06.262Z,62.74
2018-02-08T09:38:34.564Z,62.54
2018-02-08T09:41:02.944Z,62.20
2018-02-08T09:43:32.421Z,61.74
2018-02-08T09:46:00.872Z,61.68
2018-02-08T09:48:29.510Z,61.51
2018-02-08T09:50:58.606Z,61.36
2018-02-08T09:53:27.709Z,61.13
2018-02-08T09:55:56.866Z,60.99
2018-02-08T09:58:25.190Z,61.06
2018-02-08T10:00:53.499Z,60.55
2018-02-08T10:03:21.808Z,60.65
2018-02-08T10:05:50.116Z,60.90
2018-02-08T10:08:18.455Z,61.25
2018-02-08T10:10:46.783Z,61.51
2018-02-08T10:13:15.862Z,61.83
2018-02-08T10:15:44.391Z,62.46
2018-02-08T10:18:12.721Z,62.93
2018-02-08T10:20:41.695Z,63.10
2018-02-08T10:23:10.042Z,62.97
2018-02-08T10:25:38.378Z,62.61
2018-02-08T10:28:06.961Z,62.29
2018-02-08T10:30:35.247Z,62.22
2018-02-08T10:33:03.540Z,62.10
2018-02-08T10:35:31.867Z,61.99
2018-02-08T10:38:00.190Z,61.98
2018-02-08T10:40:28.544Z,61.65
2018-02-08T10:42:57.798Z,61.62
2018-02-08T10:45:27.622Z,61.60
2018-02-08T10:47:55.960Z,61.74
2018-02-08T10:50:24.273Z,61.88
2018-02-08T10:52:52.630Z,61.81
2018-02-08T10:55:21.734Z,61.68
2018-02-08T10:57:50.037Z,61.21
2018-02-08T11:00:18.568Z,61.01
2018-02-08T11:02:46.865Z,60.47
2018-02-08T11:05:15.167Z,60.57
2018-02-08T11:07:44.160Z,60.66
2018-02-08T11:10:12.526Z,60.74
2018-02-08T11:12:41.590Z,61.00
2018-02-08T11:15:09.878Z,60.93
2018-02-08T11:17:38.227Z,61.11
2018-02-08T11:20:06.514Z,61.06
2018-02-08T11:22:34.831Z,61.04
2018-02-08T11:25:03.205Z,61.00
2018-02-08T11:27:32.273Z,60.93
2018-02-08T11:30:00.583Z,60.88
2018-02-08T11:32:28.879Z,61.04
2018-02-08T11:34:57.201Z,61.16
2018-02-08T11:37:25.523Z,61.23
2018-02-08T11:39:53.896Z,61.18
2018-02-08T11:42:23.259Z,61.07
2018-02-08T11:44:52.345Z,61.10
2018-02-08T11:47:22.095Z,61.17
2018-02-08T11:49:50.415Z,61.27
2018-02-08T11:52:18.749Z,61.28
2018-02-08T11:54:47.829Z,61.33
2018-02-08T11:57:16.923Z,61.33
2018-02-08T11:59:46.065Z,61.47
2018-02-08T12:02:14.400Z,61.58
2018-02-08T12:04:43.475Z,61.30
2018-02-08T12:07:11.779Z,61.48
2018-02-08T12:09:40.124Z,61.48
2018-02-08T12:12:08.429Z,61.40
2018-02-08T12:14:36.817Z,61.36
2018-02-08T12:17:05.131Z,61.26
2018-02-08T12:19:33.471Z,61.21
2018-02-08T12:22:01.817Z,61.22
2018-02-08T12:24:30.126Z,61.20
2018-02-08T12:26:58.467Z,60.76
2018-02-08T12:29:26.807Z,60.76
2018-02-08T12:31:55.854Z,60.92
2018-02-08T12:34:24.182Z,61.03
2018-02-08T12:36:53.300Z,61.04
2018-02-08T12:39:21.645Z,61.08
2018-02-08T12:41:49.971Z,61.14
2018-02-08T12:44:18.288Z,61.13
2018-02-08T12:46:46.581Z,61.21
2018-02-08T12:49:14.918Z,61.41
2018-02-08T12:51:43.237Z,61.36
2018-02-08T12:54:11.593Z,61.35
2018-02-08T12:56:40.719Z,61.20
2018-02-08T12:59:09.029Z,60.74
2018-02-08T13:01:37.424Z,60.93
2018-02-08T13:04:05.810Z,60.99
2018-02-08T13:06:34.144Z,61.01
2018-02-08T13:09:02.471Z,60.78
2018-02-08T13:11:30.809Z,60.75
2018-02-08T13:13:59.633Z,60.91
2018-02-08T13:16:27.960Z,60.95
2018-02-08T13:18:57.061Z,61.11
2018-02-08T13:21:26.160Z,61.04
2018-02-08T13:23:55.245Z,61.17
2018-02-08T13:26:24.347Z,61.07
2018-02-08T13:28:53.731Z,61.13
2018-02-08T13:31:37.859Z,60.95
2018-02-08T13:34:06.177Z,60.77
2018-02-08T13:36:36.937Z,60.75
2018-02-08T13:39:05.262Z,60.57
2018-02-08T13:41:33.659Z,60.16
2018-02-08T13:44:01.952Z,60.12
2018-02-08T13:46:30.279Z,60.14
2018-02-08T13:52:04.971Z,60.05
2018-02-08T13:54:34.336Z,60.14
2018-02-08T13:57:04.939Z,60.10
2018-02-08T13:59:39.585Z,60.11
2018-02-08T14:02:08.267Z,60.34
2018-02-08T14:04:36.647Z,60.16
2018-02-08T14:07:04.965Z,60.11
2018-02-08T14:09:33.283Z,60.11
2018-02-08T14:12:01.608Z,60.06
2018-02-08T14:14:30.023Z,59.78
2018-02-08T14:16:58.345Z,59.77
2018-02-08T14:19:26.691Z,59.57
2018-02-08T14:21:55.011Z,59.43
2018-02-08T14:24:23.343Z,59.38
2018-02-08T14:26:51.665Z,59.29
2018-02-08T14:29:20.734Z,59.21
2018-02-08T14:31:49.087Z,59.23
2018-02-08T14:34:17.464Z,59.38
2018-02-08T14:36:45.775Z,59.09
2018-02-08T14:39:14.104Z,58.82
2018-02-08T14:41:43.523Z,58.72
2018-02-08T14:44:11.963Z,58.78
2018-02-08T14:46:40.292Z,58.67
2018-02-08T14:49:08.606Z,58.76
2018-02-08T14:51:36.951Z,58.69
2018-02-08T14:54:05.267Z,58.91
2018-02-08T14:56:33.637Z,59.25
2018-02-08T14:59:02.495Z,59.51
2018-02-08T15:01:31.606Z,59.26
2018-02-08T15:04:00.702Z,59.44
2018-02-08T15:06:29.781Z,59.62
2018-02-08T15:08:59.582Z,60.01
2018-02-08T15:11:27.891Z,60.39
2018-02-08T15:13:57.049Z,60.50
2018-02-08T15:16:26.417Z,60.89
2018-02-08T15:18:54.736Z,61.02
2018-02-08T15:21:23.087Z,60.77
2018-02-08T15:23:51.425Z,60.62
2018-02-08T15:26:19.759Z,60.88
2018-02-08T15:28:48.145Z,61.20
2018-02-08T15:31:16.447Z,61.48
2018-02-08T15:33:44.773Z,61.79
2018-02-08T15:36:13.206Z,61.99
2018-02-08T15:38:41.510Z,62.20
2018-02-08T15:41:09.880Z,62.23
2018-02-08T15:43:38.215Z,62.33
2018-02-08T15:46:07.312Z,62.39
2018-02-08T15:48:36.411Z,62.33
2018-02-08T15:51:05.542Z,62.33
2018-02-08T15:53:33.903Z,62.43
2018-02-08T15:56:02.274Z,62.44
2018-02-08T15:58:31.363Z,62.42
2018-02-08T16:01:00.469Z,62.26
2018-02-08T16:03:29.642Z,62.09
2018-02-08T16:05:57.963Z,62.05
2018-02-08T16:08:27.055Z,62.21
2018-02-08T16:10:56.148Z,62.34
2018-02-08T16:13:24.479Z,62.62
2018-02-08T16:15:52.789Z,63.00
2018-02-08T16:18:21.131Z,63.32
2018-02-08T16:20:49.457Z,63.37
2018-02-08T16:23:17.815Z,63.38
2018-02-08T16:25:46.132Z,63.53
2018-02-08T16:28:15.243Z,63.61
2018-02-08T16:30:44.361Z,63.74
2018-02-08T16:33:13.747Z,63.88
2018-02-08T16:35:42.077Z,64.18
2018-02-08T16:38:10.379Z,64.43
2018-02-08T16:40:38.773Z,64.59
2018-02-08T16:43:07.218Z,64.74
2018-02-08T16:45:35.509Z,64.99
2018-02-08T16:48:03.839Z,65.10
2018-02-08T16:50:32.205Z,65.29
2018-02-08T16:53:00.547Z,65.61
2018-02-08T16:55:29.237Z,65.63
2018-02-08T16:57:57.623Z,65.74
2018-02-08T17:00:26.089Z,65.81
2018-02-08T17:02:55.173Z,65.91
2018-02-08T17:05:23.504Z,65.97
2018-02-08T17:07:51.837Z,66.14
2018-02-08T17:10:20.155Z,66.32
2018-02-08T17:12:48.719Z,66.34
2018-02-08T17:15:17.801Z,66.48
2018-02-08T17:17:46.117Z,66.61
2018-02-08T17:20:14.501Z,66.75
2018-02-08T17:22:42.828Z,66.84
2018-02-08T17:25:11.137Z,66.99
2018-02-08T17:27:40.315Z,67.05
2018-02-08T17:30:08.952Z,67.20
2018-02-08T17:32:37.284Z,67.38
2018-02-08T17:35:05.651Z,67.46
2018-02-08T17:37:34.020Z,67.58
2018-02-08T17:40:02.340Z,67.62
2018-02-08T17:42:30.791Z,67.75
2018-02-08T17:44:59.097Z,67.79
2018-02-08T17:47:27.451Z,67.54
2018-02-08T17:49:55.770Z,67.39
2018-02-08T17:52:24.079Z,67.44
2018-02-08T17:54:53.166Z,67.52
2018-02-08T17:57:22.255Z,67.63
2018-02-08T17:59:50.580Z,67.72
2018-02-08T18:02:18.966Z,67.88
2018-02-08T18:04:47.307Z,68.39
2018-02-08T18:07:15.641Z,68.78
2018-02-08T18:09:43.953Z,69.04
2018-02-08T18:12:12.264Z,69.22
2018-02-08T18:14:40.590Z,69.38
2018-02-08T18:17:09.166Z,69.53
2018-02-08T18:19:38.241Z,69.74
2018-02-08T18:22:07.438Z,69.83
2018-02-08T18:24:36.529Z,69.95
2018-02-08T18:27:05.640Z,70.15
2018-02-08T18:29:34.714Z,70.26
2018-02-08T18:32:03.024Z,70.35
2018-02-08T18:34:32.139Z,70.48
2018-02-08T18:37:00.455Z,70.60
2018-02-08T18:39:28.789Z,70.71
2018-02-08T18:41:57.850Z,70.84
2018-02-08T18:44:26.154Z,71.00
2018-02-08T18:46:54.547Z,71.10
2018-02-08T18:49:22.864Z,71.21
2018-02-08T18:51:51.213Z,71.31
2018-02-08T18:54:20.313Z,71.42
2018-02-08T18:56:49.406Z,71.49
2018-02-08T18:59:17.724Z,71.69
2018-02-08T19:01:46.053Z,71.71
2018-02-08T19:04:14.672Z,71.84
2018-02-08T19:06:43.756Z,71.88
2018-02-08T19:09:12.350Z,71.99
2018-02-08T19:11:41.444Z,72.12
2018-02-08T19:14:10.520Z,72.24
2018-02-08T19:16:38.836Z,72.41
2018-02-08T19:19:07.898Z,72.52
2018-02-08T19:21:36.236Z,72.62
2018-02-08T19:24:04.636Z,72.70
2018-02-08T19:26:32.969Z,72.82
2018-02-08T19:29:01.308Z,72.98
2018-02-08T19:31:29.611Z,73.04
2018-02-08T19:33:57.911Z,73.12
2018-02-08T19:36:26.240Z,73.30
2018-02-08T19:38:54.530Z,73.38
2018-02-08T19:41:22.875Z,73.49
2018-02-08T19:43:51.957Z,73.49
2018-02-08T19:46:20.282Z,73.61
2018-02-08T19:48:48.593Z,73.73
2018-02-08T19:51:16.908Z,73.88
2018-02-08T19:53:45.236Z,73.95
2018-02-08T19:56:13.542Z,74.03
2018-02-08T19:58:41.872Z,74.22
2018-02-08T20:01:10.942Z,74.23
2018-02-08T20:03:39.250Z,74.32
2018-02-08T20:06:08.360Z,74.50
2018-02-08T20:08:37.462Z,74.70
2018-02-08T20:11:05.815Z,74.75
2018-02-08T20:13:34.150Z,74.88
2018-02-08T20:16:02.467Z,74.95
2018-02-08T20:18:30.780Z,75.02
2018-02-08T20:20:59.902Z,75.07
2018-02-08T20:23:28.212Z,75.12
2018-02-08T20:25:56.534Z,75.25
2018-02-08T20:28:24.899Z,75.36
2018-02-08T20:30:58.752Z,75.51
2018-02-08T20:33:27.056Z,75.51
2018-02-08T20:35:55.373Z,75.60
2018-02-08T20:38:23.676Z,76.18
2018-02-08T20:40:52.753Z,76.23
2018-02-08T20:43:26.590Z,76.15
2018-02-08T20:45:55.700Z,76.03
2018-02-08T20:48:24.026Z,76.00
2018-02-08T20:50:52.378Z,76.01
2018-02-08T20:53:20.692Z,76.00
2018-02-08T20:55:48.995Z,75.99
2018-02-08T20:58:17.320Z,75.97
2018-02-08T21:00:45.607Z,75.96
2018-02-08T21:03:13.937Z,75.98
2018-02-08T21:05:42.261Z,75.96
2018-02-08T21:08:10.576Z,75.92
2018-02-08T21:10:38.923Z,75.91
2018-02-08T21:13:07.242Z,75.88
2018-02-08T21:15:36.104Z,75.92
2018-02-08T21:18:04.394Z,75.94
2018-02-08T21:20:32.698Z,75.94
2018-02-08T21:23:01.022Z,76.09
2018-02-08T21:25:30.099Z,76.10
2018-02-08T21:27:58.443Z,76.13
2018-02-08T21:30:26.892Z,76.27
2018-02-08T21:32:56.006Z,76.37
2018-02-08T21:35:24.327Z,76.40
2018-02-08T21:37:52.662Z,76.41
2018-02-08T21:40:21.750Z,76.55
2018-02-08T21:42:50.102Z,76.67
2018-02-08T21:45:19.189Z,76.61
2018-02-08T21:47:47.487Z,76.46
2018-02-08T21:50:15.792Z,76.30
2018-02-08T21:52:44.144Z,76.18
2018-02-08T21:55:12.475Z,76.12
2018-02-08T21:57:41.573Z,76.16
2018-02-08T22:00:10.634Z,76.19
2018-02-08T22:02:38.975Z,76.14
2018-02-08T22:05:07.296Z,76.08
2018-02-08T22:07:35.621Z,75.92
2018-02-08T22:10:04.688Z,75.77
2018-02-08T22:12:33.020Z,75.65
2018-02-08T22:15:01.310Z,75.57
2018-02-08T22:17:29.616Z,75.49
2018-02-08T22:19:57.906Z,75.38
2018-02-08T22:22:26.266Z,75.16
2018-02-08T22:24:55.298Z,75.13
2018-02-08T22:27:23.708Z,75.01
2018-02-08T22:29:52.782Z,75.06
2018-02-08T22:32:21.084Z,75.09
2018-02-08T22:34:50.170Z,74.95
2018-02-08T22:37:18.489Z,74.88
2018-02-08T22:39:46.800Z,74.84
2018-02-08T22:42:15.166Z,74.82
2018-02-08T22:44:43.454Z,74.66
2018-02-08T22:47:11.792Z,74.61
2018-02-08T22:49:40.867Z,74.52
2018-02-08T22:52:09.166Z,74.44
2018-02-08T22:54:37.482Z,74.30
2018-02-08T22:57:05.798Z,74.35
2018-02-08T22:59:34.088Z,74.28
2018-02-08T23:02:02.418Z,74.27
2018-02-08T23:04:31.474Z,74.21
2018-02-08T23:07:00.638Z,74.08
2018-02-08T23:09:28.980Z,74.09
2018-02-08T23:11:57.297Z,74.11
2018-02-08T23:14:25.607Z,73.98
2018-02-08T23:16:53.911Z,73.99
2018-02-08T23:19:22.246Z,73.86
2018-02-08T23:21:50.590Z,74.00
2018-02-08T23:24:18.902Z,74.01
2018-02-08T23:26:47.214Z,74.05
2018-02-08T23:29:15.534Z,74.17
2018-02-08T23:31:44.640Z,74.34
2018-02-08T23:34:13.774Z,74.33
2018-02-08T23:36:42.126Z,74.34
2018-02-08T23:39:11.186Z,74.12
2018-02-08T23:41:39.578Z,74.13
2018-02-08T23:44:08.022Z,74.14
2018-02-08T23:46:36.364Z,74.19
2018-02-08T23:49:05.464Z,73.93
2018-02-08T23:51:33.896Z,73.82
2018-02-08T23:54:02.211Z,73.78
2018-02-08T23:56:30.519Z,73.81
2018-02-08T23:58:59.575Z,73.74
